Time;durP1;ratioP1;P1;durP2;ratioP2;P2;SDS_P1;SDS_P2;PMS_P1;PMS_P2;Temp;Humidity;BMP_temperature;BMP_pressure;BME280_temperature;BME280_humidity;BME280_pressure;Samples;Min_cycle;Max_cycle;Signal;HPM_P1;HPM_P2
2021/10/13 00:00:19;;;;;;;2.08;1.23;;;;;;;10.65;100.00;99885.38;4957337;28;20586;-68
2021/10/13 00:02:44;;;;;;;2.10;1.40;;;;;;;10.74;100.00;99887.31;4992147;28;20029;-67
2021/10/13 00:05:10;;;;;;;1.73;1.38;;;;;;;10.77;100.00;99883.13;4991264;28;20033;-66
2021/10/13 00:07:35;;;;;;;2.15;1.35;;;;;;;10.80;100.00;99887.50;4992095;28;20090;-65
2021/10/13 00:10:01;;;;;;;1.38;1.20;;;;;;;10.86;100.00;99897.13;4991564;28;20373;-68
2021/10/13 00:12:27;;;;;;;2.33;1.13;;;;;;;10.81;100.00;99890.09;4989559;28;20025;-68
2021/10/13 00:14:53;;;;;;;1.33;1.23;;;;;;;10.51;100.00;99874.69;4979867;28;20036;-67
2021/10/13 00:17:19;;;;;;;3.30;1.52;;;;;;;10.19;100.00;99808.44;4991974;28;20038;-66
2021/10/13 00:19:45;;;;;;;3.35;1.70;;;;;;;10.51;100.00;99888.44;4990794;28;20104;-66
2021/10/13 00:22:10;;;;;;;3.40;1.88;;;;;;;10.52;100.00;99889.34;4976625;28;20085;-65
2021/10/13 00:24:36;;;;;;;3.08;1.25;;;;;;;10.45;100.00;99877.09;4989305;28;20058;-65
2021/10/13 00:27:02;;;;;;;2.85;1.58;;;;;;;10.54;100.00;99889.38;4991598;28;20499;-66
2021/10/13 00:29:27;;;;;;;2.97;1.40;;;;;;;10.47;100.00;99886.63;4992090;28;20461;-66
2021/10/13 00:31:53;;;;;;;1.83;1.50;;;;;;;10.23;100.00;99860.97;4991968;28;20034;-65
2021/10/13 00:34:18;;;;;;;1.98;1.52;;;;;;;10.49;100.00;99890.13;4979008;28;20035;-65
2021/10/13 00:36:44;;;;;;;2.78;1.50;;;;;;;10.37;100.00;99897.53;4990827;28;20022;-65
2021/10/13 00:39:09;;;;;;;2.20;1.65;;;;;;;10.31;100.00;99905.06;4989894;28;20360;-66
2021/10/13 00:41:35;;;;;;;2.20;1.90;;;;;;;10.32;100.00;99901.66;4990967;28;20027;-65
2021/10/13 00:44:04;;;;;;;4.20;2.17;;;;;;;10.25;100.00;99876.50;4991982;28;20032;-66
2021/10/13 00:46:29;;;;;;;2.70;1.97;;;;;;;10.32;100.00;99899.06;4991677;28;20092;-65
2021/10/13 00:48:55;;;;;;;3.75;2.30;;;;;;;10.28;100.00;99904.94;4991468;28;20030;-63
2021/10/13 00:51:20;;;;;;;2.97;1.85;;;;;;;9.96;100.00;99837.84;4991827;28;20472;-66
2021/10/13 00:53:46;;;;;;;3.90;2.10;;;;;;;10.40;100.00;99909.63;4991501;28;20025;-63
2021/10/13 00:56:11;;;;;;;3.13;2.17;;;;;;;10.45;100.00;99918.38;4991985;28;20030;-65
2021/10/13 00:58:37;;;;;;;4.03;2.28;;;;;;;10.44;100.00;99909.78;4991741;28;20022;-64
2021/10/13 01:01:11;;;;;;;3.13;2.05;;;;;;;10.52;100.00;99916.00;4999184;28;20042;-63
2021/10/13 01:03:45;;;;;;;3.40;2.40;;;;;;;10.25;100.00;99899.72;5010936;28;20526;-66
2021/10/13 01:06:29;;;;;;;3.72;2.55;;;;;;;10.27;100.00;99918.66;5000598;28;20499;-64
2021/10/13 01:08:57;;;;;;;3.40;2.70;;;;;;;10.15;100.00;99922.63;5013449;28;20034;-65
2021/10/13 01:11:25;;;;;;;5.90;2.95;;;;;;;9.77;100.00;99852.75;5015185;28;20102;-64
2021/10/13 01:14:34;;;;;;;4.70;3.40;;;;;;;9.78;100.00;99835.59;5001994;28;20026;-65
2021/10/13 01:17:12;;;;;;;3.78;2.70;;;;;;;10.21;100.00;99929.69;5005670;28;20033;-65
2021/10/13 01:19:46;;;;;;;4.60;3.33;;;;;;;10.16;100.00;99929.56;5014699;28;20017;-65
2021/10/13 01:22:44;;;;;;;4.90;3.20;;;;;;;10.26;100.00;99928.13;5015044;28;20448;-65
2021/10/13 01:25:46;;;;;;;6.43;3.45;;;;;;;10.29;100.00;99935.97;5003155;28;20026;-65
2021/10/13 01:28:25;;;;;;;8.23;3.85;;;;;;;10.36;100.00;99924.16;5014683;28;20026;-65
2021/10/13 01:30:58;;;;;;;4.30;3.47;;;;;;;10.35;100.00;99935.25;5014728;28;20110;-66
2021/10/13 01:33:28;;;;;;;4.53;3.42;;;;;;;10.40;100.00;99938.03;5014757;28;20057;-63
2021/10/13 01:35:59;;;;;;;7.13;4.00;;;;;;;9.14;100.00;99748.66;5014669;28;20076;-66
2021/10/13 01:38:27;;;;;;;6.75;5.15;;;;;;;10.30;100.00;99944.56;5014626;28;20025;-66
2021/10/13 01:40:56;;;;;;;9.25;4.63;;;;;;;10.23;100.00;99934.91;5014778;28;20105;-66
2021/10/13 01:43:24;;;;;;;6.10;5.20;;;;;;;10.03;100.00;99915.44;5014442;28;20496;-66
2021/10/13 01:45:54;;;;;;;6.10;4.55;;;;;;;10.29;100.00;99933.41;5014897;28;20037;-66
2021/10/13 01:48:20;;;;;;;6.32;4.75;;;;;;;10.11;100.00;99925.97;5014338;28;20460;-66
2021/10/13 01:50:48;;;;;;;5.75;4.40;;;;;;;9.99;100.00;99943.66;4996974;28;20049;-64
2021/10/13 01:53:18;;;;;;;7.07;5.15;;;;;;;9.94;100.00;99950.38;4996849;28;20472;-66
2021/10/13 01:55:45;;;;;;;6.55;4.57;;;;;;;9.82;100.00;99951.75;5013882;28;20109;-65
2021/10/13 01:58:11;;;;;;;7.60;5.45;;;;;;;9.76;100.00;99930.91;4996913;28;20169;-66
2021/10/13 02:00:38;;;;;;;6.93;5.20;;;;;;;9.91;100.00;99952.88;5014356;28;20034;-66
2021/10/13 02:03:07;;;;;;;6.32;5.13;;;;;;;9.83;100.00;99952.59;5014460;28;20026;-66
2021/10/13 02:05:35;;;;;;;6.82;5.25;;;;;;;9.84;100.00;99951.78;4996456;28;20056;-65
2021/10/13 02:08:02;;;;;;;7.55;6.18;;;;;;;9.84;100.00;99931.16;5014141;28;20034;-66
2021/10/13 02:10:28;;;;;;;6.85;5.32;;;;;;;9.91;100.00;99960.59;5013799;28;20025;-66
2021/10/13 02:12:57;;;;;;;6.70;5.55;;;;;;;9.92;100.00;99972.66;5008884;28;20649;-65
2021/10/13 02:15:24;;;;;;;6.47;5.43;;;;;;;9.33;100.00;99878.00;4988369;28;20458;-66
2021/10/13 02:17:53;;;;;;;6.53;5.53;;;;;;;9.86;100.00;99973.34;5013769;28;20026;-66
2021/10/13 02:20:21;;;;;;;7.72;5.75;;;;;;;9.96;100.00;99971.94;5013258;28;20022;-66
2021/10/13 02:22:49;;;;;;;6.28;5.57;;;;;;;9.93;100.00;99957.25;5013474;28;20045;-66
2021/10/13 02:25:15;;;;;;;8.77;5.47;;;;;;;10.18;100.00;99970.88;5013977;28;20030;-65
2021/10/13 02:28:09;;;;;;;8.63;7.07;;;;;;;10.31;100.00;99970.41;5013844;28;20030;-66
2021/10/13 02:30:35;;;;;;;8.75;6.70;;;;;;;10.01;100.00;99893.88;5013586;28;20403;-66
2021/10/13 02:33:00;;;;;;;8.65;6.05;;;;;;;10.64;100.00;99979.13;5013600;28;20026;-65
2021/10/13 02:35:26;;;;;;;8.60;5.85;;;;;;;10.71;100.00;99968.16;5013391;28;20084;-66
2021/10/13 02:37:52;;;;;;;7.65;5.88;;;;;;;10.62;100.00;99953.28;4995989;28;20065;-65
2021/10/13 02:40:17;;;;;;;7.55;5.40;;;;;;;10.79;100.00;99976.09;5013537;28;20030;-66
2021/10/13 02:42:43;;;;;;;7.75;6.03;;;;;;;10.20;100.00;99892.72;5013619;28;20026;-66
2021/10/13 02:45:09;;;;;;;10.73;6.68;;;;;;;10.67;100.00;99951.69;5013541;28;20022;-66
2021/10/13 02:47:51;;;;;;;8.73;6.28;;;;;;;10.41;100.00;99891.59;5013326;28;20408;-67
2021/10/13 02:50:40;;;;;;;7.93;6.10;;;;;;;10.91;100.00;99997.13;5013276;28;20025;-65
2021/10/13 02:53:14;;;;;;;8.32;5.97;;;;;;;10.86;100.00;99993.53;5013367;28;20045;-65
2021/10/13 02:56:01;;;;;;;8.75;6.22;;;;;;;10.68;100.00;99986.16;5013531;28;20073;-65
2021/10/13 02:58:33;;;;;;;8.27;6.22;;;;;;;10.89;100.00;100008.22;5013129;28;20092;-66
2021/10/13 03:01:00;;;;;;;8.13;6.50;;;;;;;10.77;100.00;99983.81;5013311;28;20064;-66
2021/10/13 03:03:26;;;;;;;7.93;6.43;;;;;;;10.44;100.00;99948.47;5012917;28;20036;-64
2021/10/13 03:05:54;;;;;;;6.72;5.35;;;;;;;10.33;100.00;99978.19;5012888;28;20034;-65
2021/10/13 03:08:25;;;;;;;9.02;6.20;;;;;;;10.43;100.00;100020.66;5012754;28;20026;-69
2021/10/13 03:10:55;;;;;;;8.60;6.60;;;;;;;10.44;100.00;100017.25;5012811;28;20026;-66
2021/10/13 03:13:25;;;;;;;8.18;6.10;;;;;;;9.79;100.00;99932.72;5004377;28;20038;-66
2021/10/13 03:15:51;;;;;;;7.82;6.30;;;;;;;10.10;100.00;100019.66;5008293;28;20042;-66
2021/10/13 03:18:17;;;;;;;8.68;6.78;;;;;;;9.91;100.00;99988.97;5013141;28;20057;-65
2021/10/13 03:20:43;;;;;;;12.52;7.65;;;;;;;10.00;100.00;100015.03;5012839;28;20068;-66
2021/10/13 03:23:12;;;;;;;9.43;7.78;;;;;;;9.99;100.00;100023.59;5012275;28;20468;-66
2021/10/13 03:25:38;;;;;;;11.03;8.63;;;;;;;9.96;100.00;100019.22;5012673;28;20381;-66
2021/10/13 03:28:04;;;;;;;10.77;8.70;;;;;;;9.90;100.00;100031.91;5012416;28;20084;-67
2021/10/13 03:30:30;;;;;;;11.40;8.95;;;;;;;9.71;100.00;100012.38;5012315;28;20038;-65
2021/10/13 03:32:56;;;;;;;11.75;9.30;;;;;;;9.33;100.00;99960.44;4994970;28;20037;-66
2021/10/13 03:35:27;;;;;;;11.95;10.27;;;;;;;9.60;100.00;99999.13;5012751;28;20118;-66
2021/10/13 03:37:55;;;;;;;11.93;9.60;;;;;;;9.63;100.00;100021.56;4958967;28;20054;-66
2021/10/13 03:40:21;;;;;;;12.32;10.15;;;;;;;9.54;100.00;100023.03;5012450;28;20107;-66
2021/10/13 03:42:46;;;;;;;14.52;11.10;;;;;;;9.43;100.00;100005.44;4994853;28;20459;-66
2021/10/13 03:45:14;;;;;;;17.23;11.80;;;;;;;9.48;100.00;100020.25;5012377;28;20073;-66
2021/10/13 03:47:40;;;;;;;15.15;11.07;;;;;;;8.83;100.00;99919.25;5012576;28;20369;-70
2021/10/13 03:50:06;;;;;;;16.90;12.82;;;;;;;9.34;100.00;100000.84;4963265;28;20068;-67
2021/10/13 03:52:31;;;;;;;15.30;12.00;;;;;;;9.44;100.00;100025.22;5010273;28;20029;-66
2021/10/13 03:54:57;;;;;;;16.30;13.00;;;;;;;9.50;100.00;100034.03;5007023;28;20496;-66
2021/10/13 03:57:23;;;;;;;16.55;12.43;;;;;;;9.49;100.00;100016.81;5006549;28;20037;-66
2021/10/13 03:59:48;;;;;;;16.35;12.43;;;;;;;9.51;100.00;100037.50;5003829;28;20039;-66
2021/10/13 04:02:14;;;;;;;16.50;12.73;;;;;;;8.57;100.00;99852.31;5010664;28;20026;-64
2021/10/13 04:04:39;;;;;;;15.27;12.38;;;;;;;9.54;100.00;100023.03;5011553;28;20033;-66
2021/10/13 04:07:05;;;;;;;16.35;12.30;;;;;;;9.60;100.00;100011.16;5011824;28;20030;-71
2021/10/13 04:09:30;;;;;;;17.13;13.63;;;;;;;9.52;100.00;100009.19;4994388;28;20060;-66
2021/10/13 04:11:56;;;;;;;17.52;13.50;;;;;;;9.49;100.00;100003.06;5011584;28;20045;-67
2021/10/13 04:14:21;;;;;;;16.40;12.93;;;;;;;9.45;100.00;100038.16;4998085;28;20384;-65
2021/10/13 04:16:46;;;;;;;16.25;12.73;;;;;;;8.99;100.00;99954.16;5011933;28;20022;-66
2021/10/13 04:19:12;;;;;;;16.67;12.88;;;;;;;9.62;100.00;100045.56;5011841;28;20391;-65
2021/10/13 04:21:37;;;;;;;19.00;13.25;;;;;;;9.62;100.00;100043.88;5011876;28;20036;-64
2021/10/13 04:24:03;;;;;;;21.75;13.10;;;;;;;9.77;100.00;100046.09;4992514;28;20467;-66
2021/10/13 04:26:29;;;;;;;17.25;12.65;;;;;;;9.79;100.00;100047.00;5011766;28;20443;-66
2021/10/13 04:28:54;;;;;;;20.45;13.30;;;;;;;9.85;100.00;100052.38;5011348;28;20030;-65
2021/10/13 04:31:19;;;;;;;17.17;13.23;;;;;;;9.95;100.00;100053.56;5011556;28;20476;-66
2021/10/13 04:33:45;;;;;;;64.53;49.70;;;;;;;9.69;100.00;99993.41;5011254;28;20475;-65
2021/10/13 04:36:10;;;;;;;22.75;18.05;;;;;;;10.08;100.00;100052.28;5011417;28;20060;-66
2021/10/13 04:38:36;;;;;;;16.90;12.60;;;;;;;9.96;100.00;100026.94;5011670;28;20030;-66
2021/10/13 04:41:01;;;;;;;21.30;12.30;;;;;;;9.97;100.00;100053.59;5011844;28;20026;-65
2021/10/13 04:43:27;;;;;;;15.75;12.70;;;;;;;9.78;100.00;100053.03;5011275;28;20457;-63
2021/10/13 04:45:52;;;;;;;16.67;12.15;;;;;;;9.54;100.00;100037.59;5011273;28;20022;-65
2021/10/13 04:48:18;;;;;;;16.60;12.63;;;;;;;9.55;100.00;100057.38;5011328;28;20446;-63
2021/10/13 04:50:43;;;;;;;16.63;12.90;;;;;;;9.78;100.00;100063.34;5010847;28;20022;-65
2021/10/13 04:53:08;;;;;;;15.00;12.10;;;;;;;9.66;100.00;100043.16;5011078;28;20487;-65
2021/10/13 04:55:34;;;;;;;14.32;11.65;;;;;;;9.51;100.00;100079.59;4994084;28;20472;-65
2021/10/13 04:57:59;;;;;;;16.23;12.63;;;;;;;9.33;100.00;100063.47;5011133;28;20028;-65
2021/10/13 05:00:25;;;;;;;17.55;12.98;;;;;;;9.37;100.00;100071.38;5011229;28;20056;-65
2021/10/13 05:02:50;;;;;;;14.63;12.02;;;;;;;9.28;100.00;100085.63;5011184;28;20688;-65
2021/10/13 05:05:16;;;;;;;17.63;12.75;;;;;;;9.18;100.00;100082.75;5010738;28;20030;-66
2021/10/13 05:07:41;;;;;;;15.93;12.30;;;;;;;9.28;100.00;100095.94;5011180;28;20033;-65
2021/10/13 05:10:07;;;;;;;14.70;12.32;;;;;;;8.68;100.00;99999.38;5011272;28;20030;-66
2021/10/13 05:12:32;;;;;;;14.98;11.77;;;;;;;9.15;100.00;100107.50;4991677;28;20026;-65
2021/10/13 05:14:59;;;;;;;15.18;11.77;;;;;;;9.24;100.00;100112.97;4999424;28;20038;-65
2021/10/13 05:17:24;;;;;;;16.55;11.45;;;;;;;9.27;100.00;100112.22;5011317;28;20101;-63
2021/10/13 05:19:50;;;;;;;18.67;12.70;;;;;;;9.28;100.00;100122.56;5010852;28;20084;-65
2021/10/13 05:22:15;;;;;;;14.00;11.20;;;;;;;9.20;100.00;100108.53;4993778;28;20029;-65
2021/10/13 05:24:41;;;;;;;15.07;11.57;;;;;;;9.27;100.00;100135.38;5011177;28;20025;-66
2021/10/13 05:27:06;;;;;;;15.27;10.95;;;;;;;8.97;100.00;100125.69;5011369;28;20026;-65
2021/10/13 05:29:32;;;;;;;15.45;11.13;;;;;;;9.04;100.00;100132.84;5011323;28;20108;-65
2021/10/13 05:31:57;;;;;;;15.55;11.75;;;;;;;8.77;100.00;100094.91;5011164;28;20416;-65
2021/10/13 05:34:23;;;;;;;15.32;11.63;;;;;;;8.84;100.00;100101.19;5011140;28;20431;-65
2021/10/13 05:36:49;;;;;;;19.58;12.35;;;;;;;9.22;100.00;100130.06;4993670;28;20038;-65
2021/10/13 05:39:15;;;;;;;14.27;11.70;;;;;;;8.93;100.00;100077.50;5011435;28;20037;-67
2021/10/13 05:41:41;;;;;;;15.02;11.13;;;;;;;8.67;100.00;100043.94;5011364;28;20091;-66
2021/10/13 05:44:06;;;;;;;15.80;11.65;;;;;;;8.84;100.00;100071.19;5011059;28;20022;-67
2021/10/13 05:46:32;;;;;;;16.25;12.15;;;;;;;9.46;100.00;100142.97;5011281;28;20022;-67
2021/10/13 05:48:57;;;;;;;15.55;12.18;;;;;;;9.54;100.00;100133.84;5011163;28;20026;-67
2021/10/13 05:51:23;;;;;;;16.58;14.75;;;;;;;9.73;100.00;100147.34;5011096;28;20026;-67
2021/10/13 05:53:48;;;;;;;24.50;22.02;;;;;;;9.81;100.00;100121.84;5011610;28;20034;-65
2021/10/13 05:56:14;;;;;;;16.83;12.60;;;;;;;10.20;100.00;100145.53;5013829;28;20080;-66
2021/10/13 05:58:40;;;;;;;19.45;14.88;;;;;;;10.48;100.00;100138.72;5014715;28;20050;-66
2021/10/13 06:01:06;;;;;;;12.48;10.55;;;;;;;10.67;100.00;100144.47;5014852;28;20082;-67
2021/10/13 06:03:31;;;;;;;16.10;10.82;;;;;;;10.75;100.00;100150.72;5014619;28;20076;-66
2021/10/13 06:05:57;;;;;;;13.18;10.57;;;;;;;10.87;100.00;100149.38;5014536;28;20026;-67
2021/10/13 06:08:22;;;;;;;12.02;9.20;;;;;;;10.95;100.00;100158.22;5014783;28;20428;-66
2021/10/13 06:10:48;;;;;;;12.80;9.80;;;;;;;11.04;100.00;100170.53;5014722;28;20404;-66
2021/10/13 06:13:14;;;;;;;13.05;10.40;;;;;;;11.12;100.00;100171.66;4996289;28;20511;-66
2021/10/13 06:15:39;;;;;;;14.10;10.23;;;;;;;10.36;100.00;100027.38;5014529;28;20106;-66
2021/10/13 06:18:08;;;;;;;14.20;11.00;;;;;;;11.22;100.00;100167.63;5014400;28;20120;-67
2021/10/13 06:20:34;;;;;;;12.75;9.80;;;;;;;11.19;100.00;100160.66;5014718;28;20022;-66
2021/10/13 06:23:00;;;;;;;14.52;10.13;;;;;;;11.27;100.00;100181.56;5014331;28;20500;-66
2021/10/13 06:25:26;;;;;;;14.65;11.40;;;;;;;11.31;100.00;100180.81;5014407;28;20052;-66
2021/10/13 06:27:52;;;;;;;14.32;11.10;;;;;;;11.49;100.00;100194.28;5014353;28;20049;-67
2021/10/13 06:30:18;;;;;;;12.85;10.40;;;;;;;11.60;100.00;100199.75;5014325;28;20409;-66
2021/10/13 06:32:43;;;;;;;14.52;11.15;;;;;;;11.62;100.00;100200.66;5013972;28;20030;-66
2021/10/13 06:35:09;;;;;;;12.43;9.48;;;;;;;11.59;100.00;100221.25;5014367;28;20037;-66
2021/10/13 06:37:34;;;;;;;11.82;9.52;;;;;;;11.47;100.00;100213.16;5014333;28;20430;-66
2021/10/13 06:40:00;;;;;;;15.65;11.52;;;;;;;11.28;100.00;100186.75;5013936;28;20030;-66
2021/10/13 06:42:25;;;;;;;11.65;9.55;;;;;;;11.05;100.00;100211.91;5014171;28;20026;-66
2021/10/13 06:44:51;;;;;;;12.48;10.35;;;;;;;11.18;100.00;100226.09;5014091;28;20026;-66
2021/10/13 06:47:16;;;;;;;13.57;10.82;;;;;;;11.25;100.00;100228.03;5013859;28;20057;-66
2021/10/13 06:49:42;;;;;;;14.63;10.73;;;;;;;11.22;100.00;100206.38;4979603;28;20052;-66
2021/10/13 06:52:07;;;;;;;12.77;10.65;;;;;;;11.43;100.00;100230.28;5013843;28;20133;-67
2021/10/13 06:54:33;;;;;;;12.80;10.95;;;;;;;11.51;100.00;100230.50;5013609;28;20092;-66
2021/10/13 06:56:58;;;;;;;13.05;10.35;;;;;;;11.43;100.00;100219.94;5013633;28;20033;-66
2021/10/13 06:59:24;;;;;;;12.90;9.60;;;;;;;11.42;99.88;100238.00;5013908;28;20034;-66
2021/10/13 07:01:49;;;;;;;12.10;9.57;;;;;;;10.89;98.93;100153.75;5013371;28;20049;-66
2021/10/13 07:04:15;;;;;;;11.85;9.70;;;;;;;11.26;98.29;100247.00;4995350;28;20034;-66
2021/10/13 07:06:40;;;;;;;12.10;8.57;;;;;;;11.15;98.24;100247.53;5013439;28;20469;-66
2021/10/13 07:09:06;;;;;;;11.63;8.77;;;;;;;11.14;99.09;100245.78;5013673;28;20499;-66
2021/10/13 07:11:32;;;;;;;16.15;9.73;;;;;;;11.11;100.00;100248.25;5013521;28;20025;-67
2021/10/13 07:13:57;;;;;;;16.67;9.80;;;;;;;11.19;100.00;100250.22;5013520;28;20021;-66
2021/10/13 07:16:23;;;;;;;11.70;9.48;;;;;;;11.16;100.00;100257.06;5013373;28;20034;-66
2021/10/13 07:18:48;;;;;;;12.25;9.10;;;;;;;11.15;99.10;100260.47;5013550;28;20029;-67
2021/10/13 07:21:14;;;;;;;12.38;9.88;;;;;;;11.22;100.00;100277.03;4991292;28;20034;-67
2021/10/13 07:23:39;;;;;;;13.68;10.75;;;;;;;10.82;99.39;100208.63;4991536;28;20046;-66
2021/10/13 07:26:05;;;;;;;14.02;9.82;;;;;;;11.05;99.29;100275.63;4991515;28;20042;-67
2021/10/13 07:28:30;;;;;;;13.25;10.57;;;;;;;11.13;100.00;100280.19;4991587;28;20034;-66
2021/10/13 07:30:56;;;;;;;13.63;10.27;;;;;;;11.27;99.79;100278.03;4991232;28;20042;-66
2021/10/13 07:33:21;;;;;;;13.43;10.82;;;;;;;11.32;100.00;100273.03;4991304;28;20046;-66
2021/10/13 07:35:47;;;;;;;11.50;9.57;;;;;;;11.10;99.06;100246.53;4991155;28;20042;-67
2021/10/13 07:38:15;;;;;;;12.98;9.80;;;;;;;11.32;97.55;100280.78;4989192;28;20417;-66
2021/10/13 07:40:40;;;;;;;12.40;9.48;;;;;;;11.19;98.50;100268.28;4991478;28;20045;-66
2021/10/13 07:43:08;;;;;;;11.57;9.00;;;;;;;11.11;96.78;100276.69;4991143;28;20026;-66
2021/10/13 07:45:33;;;;;;;15.18;11.00;;;;;;;11.23;99.85;100276.19;4990885;28;20512;-66
2021/10/13 07:47:59;;;;;;;15.52;11.10;;;;;;;11.33;100.00;100279.94;4990981;28;20029;-66
2021/10/13 07:50:25;;;;;;;14.60;11.68;;;;;;;11.39;99.58;100293.06;4991062;28;20523;-66
2021/10/13 07:52:51;;;;;;;15.20;11.07;;;;;;;11.42;100.00;100277.63;4974476;28;20042;-66
2021/10/13 07:55:16;;;;;;;13.00;10.13;;;;;;;11.53;100.00;100274.50;4990750;28;20030;-72
2021/10/13 07:57:42;;;;;;;13.70;11.52;;;;;;;11.62;98.40;100293.75;4993058;28;20031;-66
2021/10/13 08:00:08;;;;;;;12.20;10.27;;;;;;;11.73;98.87;100293.19;5012437;28;20161;-66
2021/10/13 08:02:34;;;;;;;13.63;9.63;;;;;;;11.82;96.14;100290.88;5012161;28;20029;-66
2021/10/13 08:04:59;;;;;;;14.30;11.90;;;;;;;11.84;95.10;100289.22;5012819;28;20088;-63
2021/10/13 08:07:25;;;;;;;13.27;10.95;;;;;;;11.96;95.89;100281.84;4995017;28;20036;-65
2021/10/13 08:09:51;;;;;;;14.57;12.32;;;;;;;12.13;96.59;100297.81;5012579;28;20456;-66
2021/10/13 08:12:16;;;;;;;11.73;10.23;;;;;;;12.15;95.73;100300.47;5012588;28;20053;-66
2021/10/13 08:14:42;;;;;;;9.27;8.10;;;;;;;12.02;93.92;100293.19;5012627;28;20471;-67
2021/10/13 08:17:09;;;;;;;17.15;11.98;;;;;;;12.09;95.42;100298.56;5012140;28;20030;-66
2021/10/13 08:19:35;;;;;;;14.35;11.10;;;;;;;12.05;96.88;100276.03;5012228;28;20036;-66
2021/10/13 08:22:00;;;;;;;12.88;10.82;;;;;;;12.29;96.33;100290.50;4994879;28;20033;-67
2021/10/13 08:24:26;;;;;;;11.75;10.25;;;;;;;12.31;94.62;100288.78;5011785;28;20064;-66
2021/10/13 08:26:51;;;;;;;15.73;12.57;;;;;;;12.34;92.63;100286.31;5011819;28;20091;-65
2021/10/13 08:29:17;;;;;;;12.18;10.32;;;;;;;12.34;92.80;100278.53;5011898;28;20018;-67
2021/10/13 08:31:42;;;;;;;13.05;10.82;;;;;;;12.49;93.12;100282.38;5011566;28;20026;-64
2021/10/13 08:34:08;;;;;;;14.20;11.50;;;;;;;12.50;93.16;100281.53;5011742;28;20029;-67
2021/10/13 08:36:33;;;;;;;18.63;16.05;;;;;;;12.59;93.30;100281.78;5007162;28;20104;-64
2021/10/13 08:39:00;;;;;;;13.13;10.98;;;;;;;12.65;91.78;100292.28;5006298;28;20053;-67
2021/10/13 08:41:25;;;;;;;33.20;23.02;;;;;;;12.58;93.21;100275.69;5011666;28;20387;-66
2021/10/13 08:43:51;;;;;;;15.43;12.23;;;;;;;12.15;91.90;100202.13;5012013;28;20068;-66
2021/10/13 08:46:16;;;;;;;12.95;10.77;;;;;;;12.35;91.25;100236.28;5011519;28;20030;-67
2021/10/13 08:48:42;;;;;;;12.93;10.95;;;;;;;12.21;90.02;100225.59;5011538;28;20096;-66
2021/10/13 08:51:07;;;;;;;14.38;11.55;;;;;;;12.77;90.02;100309.84;5012056;28;20112;-67
2021/10/13 08:53:33;;;;;;;15.15;12.35;;;;;;;12.83;90.20;100301.38;5012099;28;20456;-67
2021/10/13 08:55:58;;;;;;;14.18;12.07;;;;;;;12.77;88.42;100296.88;5011863;28;20451;-67
2021/10/13 08:58:27;;;;;;;13.35;11.15;;;;;;;12.88;87.98;100305.81;5011912;28;20034;-68
2021/10/13 09:01:05;;;;;;;24.88;21.58;;;;;;;12.59;89.65;100315.44;5011611;28;20058;-66
2021/10/13 09:03:34;;;;;;;22.85;18.08;;;;;;;12.28;90.63;100318.06;5011490;28;20050;-67
2021/10/13 09:06:19;;;;;;;;;;;;;;;12.40;92.31;100322.72;5012135;28;20112;-67
2021/10/13 09:09:07;;;;;;;14.65;12.35;;;;;;;12.45;91.38;100328.88;5011964;28;20375;-67
2021/10/13 09:11:42;;;;;;;15.85;12.70;;;;;;;12.55;92.08;100329.16;5012022;28;20058;-67
2021/10/13 09:14:16;;;;;;;14.68;12.43;;;;;;;12.57;89.71;100336.13;5011785;28;20022;-69
2021/10/13 09:16:55;;;;;;;15.00;11.18;;;;;;;12.17;88.44;100261.69;5012201;28;20029;-67
2021/10/13 09:19:24;;;;;;;15.38;12.40;;;;;;;12.59;88.96;100328.38;5011849;28;20034;-67
2021/10/13 09:21:52;;;;;;;13.10;11.70;;;;;;;12.67;88.56;100333.75;4993995;28;20042;-67
2021/10/13 09:24:19;;;;;;;13.13;11.45;;;;;;;12.64;87.56;100331.97;5011740;28;20057;-66
2021/10/13 09:27:24;;;;;;;14.32;11.82;;;;;;;12.50;89.42;100336.78;4989292;28;20038;-67
2021/10/13 09:29:57;;;;;;;17.95;14.07;;;;;;;12.52;89.47;100327.31;4991457;28;20031;-67
2021/10/13 09:32:26;;;;;;;15.52;12.82;;;;;;;12.71;89.65;100341.66;4993285;28;20082;-66
2021/10/13 09:34:52;;;;;;;13.45;11.00;;;;;;;12.68;88.27;100338.13;4993036;28;20030;-66
2021/10/13 09:37:18;;;;;;;15.70;11.45;;;;;;;12.56;87.86;100320.53;4973466;28;20034;-66
2021/10/13 09:39:56;;;;;;;15.23;12.80;;;;;;;12.58;87.55;100311.97;4973776;28;20532;-67
2021/10/13 09:42:22;;;;;;;16.25;12.18;;;;;;;12.75;87.63;100330.53;4956481;28;20053;-67
2021/10/13 09:44:57;;;;;;;16.45;13.63;;;;;;;12.84;89.05;100329.91;4973669;28;20404;-67
2021/10/13 09:47:30;;;;;;;13.05;11.15;;;;;;;12.66;87.05;100330.31;4957325;28;20206;-66
2021/10/13 09:49:56;;;;;;;14.60;12.25;;;;;;;12.52;87.94;100332.50;4973715;28;20031;-67
2021/10/13 09:52:27;;;;;;;17.67;12.68;;;;;;;12.58;89.55;100317.13;4973452;28;20043;-67
2021/10/13 09:55:10;;;;;;;17.15;12.70;;;;;;;12.29;89.71;100249.94;4973461;28;20429;-67
2021/10/13 09:57:49;;;;;;;15.38;12.57;;;;;;;12.34;89.17;100239.72;4979310;28;20054;-66
2021/10/13 10:00:22;;;;;;;14.52;12.45;;;;;;;12.44;86.45;100246.00;4992720;28;20051;-66
2021/10/13 10:02:54;;;;;;;16.13;12.43;;;;;;;12.95;87.25;100327.59;4992652;28;20118;-67
2021/10/13 10:05:28;;;;;;;16.23;11.60;;;;;;;12.95;85.81;100312.91;4992769;28;20093;-67
2021/10/13 10:08:06;;;;;;;14.65;11.82;;;;;;;12.92;87.90;100323.19;4996332;28;20506;-69
2021/10/13 10:10:33;;;;;;;16.23;13.30;;;;;;;12.87;88.63;100318.72;5014514;28;20037;-66
2021/10/13 10:13:04;;;;;;;15.48;12.70;;;;;;;12.48;86.76;100249.56;5014398;28;20034;-66
2021/10/13 10:15:36;;;;;;;14.30;12.27;;;;;;;12.79;85.79;100315.94;5014212;28;20037;-66
2021/10/13 10:18:35;;;;;;;15.93;12.90;;;;;;;12.90;86.03;100336.97;5014152;28;20449;-66
2021/10/13 10:21:26;;;;;;;18.27;14.02;;;;;;;12.90;85.88;100342.13;4915542;29;20036;-66
2021/10/13 10:23:52;;;;;;;15.93;12.75;;;;;;;12.91;86.07;100344.75;4915462;29;20040;-67
2021/10/13 10:26:24;;;;;;;23.50;16.38;;;;;;;12.99;87.57;100336.31;4915371;29;20044;-67
2021/10/13 10:28:52;;;;;;;20.17;15.30;;;;;;;13.06;87.85;100327.81;4915731;29;20499;-66
2021/10/13 10:31:29;;;;;;;15.48;12.30;;;;;;;13.05;87.17;100333.88;4915705;29;20175;-67
2021/10/13 10:34:06;;;;;;;15.43;12.70;;;;;;;13.06;86.36;100331.31;4915202;29;20036;-65
2021/10/13 10:36:34;;;;;;;17.90;12.00;;;;;;;13.06;86.00;100333.91;4915201;29;20182;-67
2021/10/13 10:39:08;;;;;;;17.33;13.25;;;;;;;13.08;86.10;100334.81;4915214;29;20131;-67
2021/10/13 10:41:55;;;;;;;18.95;14.25;;;;;;;13.06;87.72;100336.50;4914449;29;20076;-67
2021/10/13 10:44:33;;;;;;;14.32;12.23;;;;;;;13.00;86.73;100340.66;4914820;29;20048;-66
2021/10/13 10:47:05;;;;;;;17.73;13.68;;;;;;;13.01;87.14;100351.06;4914938;29;20040;-66
2021/10/13 10:49:45;;;;;;;14.23;11.55;;;;;;;12.96;87.49;100342.28;4915015;29;20048;-66
2021/10/13 10:52:21;;;;;;;17.33;13.38;;;;;;;12.95;87.31;100340.53;4915042;29;20147;-67
2021/10/13 10:55:06;;;;;;;17.75;12.50;;;;;;;12.97;87.96;100351.78;4914790;29;20533;-66
2021/10/13 10:57:39;;;;;;;15.32;11.45;;;;;;;12.95;88.24;100346.59;4951359;28;20037;-65
2021/10/13 11:00:30;;;;;;;17.02;13.30;;;;;;;12.87;89.14;100347.22;5013540;28;20086;-66
2021/10/13 11:03:36;;;;;;;13.38;11.90;;;;;;;12.99;87.60;100338.91;4995876;28;20124;-67
2021/10/13 11:06:24;;;;;;;17.70;11.65;;;;;;;12.94;86.93;100331.88;4914748;29;20032;-66
2021/10/13 11:08:56;;;;;;;17.00;12.18;;;;;;;13.07;86.67;100327.00;4914536;29;20127;-66
2021/10/13 11:11:23;;;;;;;15.50;12.23;;;;;;;13.14;87.45;100335.81;4914667;29;20407;-66
2021/10/13 11:13:54;;;;;;;13.88;12.32;;;;;;;13.29;86.74;100327.53;4914274;29;20503;-67
2021/10/13 11:16:19;;;;;;;17.58;12.73;;;;;;;13.13;86.99;100315.91;4914532;29;20073;-66
2021/10/13 11:18:45;;;;;;;16.77;12.68;;;;;;;13.33;85.88;100330.19;4914905;29;20394;-66
2021/10/13 11:21:10;;;;;;;16.02;11.77;;;;;;;13.40;84.96;100329.53;4914402;29;20149;-67